sensor_id;sensor_type;location;lat;lon;timestamp;temperature;humidity
18948;DHT22;9607;51.600;7.558;2023-06-26T00:00:07;20.10;99.90
18948;DHT22;9607;51.600;7.558;2023-06-26T00:02:34;20.10;99.90
18948;DHT22;9607;51.600;7.558;2023-06-26T00:05:01;20.10;99.90
18948;DHT22;9607;51.600;7.558;2023-06-26T00:07:29;20.10;99.90
18948;DHT22;9607;51.600;7.558;2023-06-26T00:09:58;20.00;99.90
18948;DHT22;9607;51.600;7.558;2023-06-26T00:12:25;20.00;99.90
18948;DHT22;9607;51.600;7.558;2023-06-26T00:14:52;20.00;99.90
18948;DHT22;9607;51.600;7.558;2023-06-26T00:17:19;19.90;99.90
18948;DHT22;9607;51.600;7.558;2023-06-26T00:19:46;19.90;99.90
18948;DHT22;9607;51.600;7.558;2023-06-26T00:22:12;19.90;99.90
18948;DHT22;9607;51.600;7.558;2023-06-26T00:24:39;19.80;99.90
18948;DHT22;9607;51.600;7.558;2023-06-26T00:27:07;19.80;99.90
18948;DHT22;9607;51.600;7.558;2023-06-26T00:29:34;19.70;99.90
18948;DHT22;9607;51.600;7.558;2023-06-26T00:32:01;19.70;99.90
18948;DHT22;9607;51.600;7.558;2023-06-26T00:34:28;19.60;99.90
18948;DHT22;9607;51.600;7.558;2023-06-26T00:36:56;19.60;99.90
18948;DHT22;9607;51.600;7.558;2023-06-26T00:39:23;19.50;99.90
18948;DHT22;9607;51.600;7.558;2023-06-26T00:41:51;19.50;99.90
18948;DHT22;9607;51.600;7.558;2023-06-26T00:44:20;19.40;99.90
18948;DHT22;9607;51.600;7.558;2023-06-26T00:46:48;19.40;99.90
18948;DHT22;9607;51.600;7.558;2023-06-26T00:49:15;19.40;99.90
18948;DHT22;9607;51.600;7.558;2023-06-26T00:51:41;19.30;99.90
18948;DHT22;9607;51.600;7.558;2023-06-26T00:54:09;19.30;99.90
18948;DHT22;9607;51.600;7.558;2023-06-26T00:56:35;19.30;99.90
18948;DHT22;9607;51.600;7.558;2023-06-26T00:59:03;19.30;99.90
18948;DHT22;9607;51.600;7.558;2023-06-26T01:01:31;19.20;99.90
18948;DHT22;9607;51.600;7.558;2023-06-26T01:03:58;19.20;99.90
18948;DHT22;9607;51.600;7.558;2023-06-26T01:06:26;19.20;99.90
18948;DHT22;9607;51.600;7.558;2023-06-26T01:08:55;19.20;99.90
18948;DHT22;9607;51.600;7.558;2023-06-26T01:11:23;19.20;99.90
18948;DHT22;9607;51.600;7.558;2023-06-26T01:13:51;19.20;99.90
18948;DHT22;9607;51.600;7.558;2023-06-26T01:16:20;19.20;99.90
18948;DHT22;9607;51.600;7.558;2023-06-26T01:18:51;19.20;99.90
18948;DHT22;9607;51.600;7.558;2023-06-26T01:21:18;19.10;99.90
18948;DHT22;9607;51.600;7.558;2023-06-26T01:23:56;19.10;99.90
18948;DHT22;9607;51.600;7.558;2023-06-26T01:26:27;19.10;99.90
18948;DHT22;9607;51.600;7.558;2023-06-26T01:28:56;19.10;99.90
18948;DHT22;9607;51.600;7.558;2023-06-26T01:31:24;19.10;99.90
18948;DHT22;9607;51.600;7.558;2023-06-26T01:33:51;19.20;99.90
18948;DHT22;9607;51.600;7.558;2023-06-26T01:36:19;19.10;99.90
18948;DHT22;9607;51.600;7.558;2023-06-26T01:38:47;19.20;99.90
18948;DHT22;9607;51.600;7.558;2023-06-26T01:41:14;19.20;99.90
18948;DHT22;9607;51.600;7.558;2023-06-26T01:43:54;19.20;99.90
18948;DHT22;9607;51.600;7.558;2023-06-26T01:46:27;19.20;99.90
18948;DHT22;9607;51.600;7.558;2023-06-26T01:49:05;19.20;99.90
18948;DHT22;9607;51.600;7.558;2023-06-26T01:51:37;19.20;99.90
18948;DHT22;9607;51.600;7.558;2023-06-26T01:54:08;19.20;99.90
18948;DHT22;9607;51.600;7.558;2023-06-26T01:56:38;19.20;99.90
18948;DHT22;9607;51.600;7.558;2023-06-26T01:59:09;19.10;99.90
18948;DHT22;9607;51.600;7.558;2023-06-26T02:01:36;19.10;99.90
18948;DHT22;9607;51.600;7.558;2023-06-26T02:04:03;19.10;99.90
18948;DHT22;9607;51.600;7.558;2023-06-26T02:06:30;19.00;99.90
18948;DHT22;9607;51.600;7.558;2023-06-26T02:08:57;19.10;99.90
18948;DHT22;9607;51.600;7.558;2023-06-26T02:11:24;19.10;99.90
18948;DHT22;9607;51.600;7.558;2023-06-26T02:13:50;19.00;99.90
18948;DHT22;9607;51.600;7.558;2023-06-26T02:16:19;19.00;99.90
18948;DHT22;9607;51.600;7.558;2023-06-26T02:18:46;19.00;99.90
18948;DHT22;9607;51.600;7.558;2023-06-26T02:21:13;19.00;99.90
18948;DHT22;9607;51.600;7.558;2023-06-26T02:23:40;18.90;99.90
18948;DHT22;9607;51.600;7.558;2023-06-26T02:26:07;18.90;99.90
18948;DHT22;9607;51.600;7.558;2023-06-26T02:28:34;18.90;99.90
18948;DHT22;9607;51.600;7.558;2023-06-26T02:31:00;18.90;99.90
18948;DHT22;9607;51.600;7.558;2023-06-26T02:33:28;18.80;99.90
18948;DHT22;9607;51.600;7.558;2023-06-26T02:35:56;18.80;99.90
18948;DHT22;9607;51.600;7.558;2023-06-26T02:38:23;18.80;99.90
18948;DHT22;9607;51.600;7.558;2023-06-26T02:40:49;18.70;99.90
18948;DHT22;9607;51.600;7.558;2023-06-26T02:43:16;18.70;99.90
18948;DHT22;9607;51.600;7.558;2023-06-26T02:45:43;18.70;99.90
18948;DHT22;9607;51.600;7.558;2023-06-26T02:48:10;18.60;99.90
18948;DHT22;9607;51.600;7.558;2023-06-26T02:50:38;18.60;99.90
18948;DHT22;9607;51.600;7.558;2023-06-26T02:53:05;18.60;99.90
18948;DHT22;9607;51.600;7.558;2023-06-26T02:55:33;18.70;99.90
18948;DHT22;9607;51.600;7.558;2023-06-26T02:58:00;18.60;99.90
18948;DHT22;9607;51.600;7.558;2023-06-26T03:00:27;18.60;99.90
18948;DHT22;9607;51.600;7.558;2023-06-26T03:02:55;18.60;99.90
18948;DHT22;9607;51.600;7.558;2023-06-26T03:05:22;18.60;99.90
18948;DHT22;9607;51.600;7.558;2023-06-26T03:07:51;18.60;99.90
18948;DHT22;9607;51.600;7.558;2023-06-26T03:10:18;18.60;99.90
18948;DHT22;9607;51.600;7.558;2023-06-26T03:12:44;18.60;99.90
18948;DHT22;9607;51.600;7.558;2023-06-26T03:15:11;18.60;99.90
18948;DHT22;9607;51.600;7.558;2023-06-26T03:17:38;18.60;99.90
18948;DHT22;9607;51.600;7.558;2023-06-26T03:20:06;18.60;99.90
18948;DHT22;9607;51.600;7.558;2023-06-26T03:22:34;18.60;99.90
18948;DHT22;9607;51.600;7.558;2023-06-26T03:25:03;18.60;99.90
18948;DHT22;9607;51.600;7.558;2023-06-26T03:27:30;18.60;99.90
18948;DHT22;9607;51.600;7.558;2023-06-26T03:29:57;18.60;99.90
18948;DHT22;9607;51.600;7.558;2023-06-26T03:32:24;18.60;99.90
18948;DHT22;9607;51.600;7.558;2023-06-26T03:34:50;18.60;99.90
18948;DHT22;9607;51.600;7.558;2023-06-26T03:37:18;18.70;99.90
18948;DHT22;9607;51.600;7.558;2023-06-26T03:39:45;18.70;99.90
18948;DHT22;9607;51.600;7.558;2023-06-26T03:42:13;18.80;99.90
18948;DHT22;9607;51.600;7.558;2023-06-26T03:44:40;18.80;99.90
18948;DHT22;9607;51.600;7.558;2023-06-26T03:47:07;18.80;99.90
18948;DHT22;9607;51.600;7.558;2023-06-26T03:49:33;18.90;99.90
18948;DHT22;9607;51.600;7.558;2023-06-26T03:52:00;18.90;99.90
18948;DHT22;9607;51.600;7.558;2023-06-26T03:54:27;18.90;99.90
18948;DHT22;9607;51.600;7.558;2023-06-26T03:56:54;18.90;99.90
18948;DHT22;9607;51.600;7.558;2023-06-26T03:59:22;18.90;99.90
18948;DHT22;9607;51.600;7.558;2023-06-26T04:01:49;18.90;99.90
18948;DHT22;9607;51.600;7.558;2023-06-26T04:04:16;19.00;99.90
18948;DHT22;9607;51.600;7.558;2023-06-26T04:06:43;19.00;99.90
18948;DHT22;9607;51.600;7.558;2023-06-26T04:09:10;19.10;99.90
18948;DHT22;9607;51.600;7.558;2023-06-26T04:11:37;19.10;99.90
18948;DHT22;9607;51.600;7.558;2023-06-26T04:14:04;19.20;99.90
18948;DHT22;9607;51.600;7.558;2023-06-26T04:16:32;19.30;99.90
18948;DHT22;9607;51.600;7.558;2023-06-26T04:18:59;19.50;99.90
18948;DHT22;9607;51.600;7.558;2023-06-26T04:21:27;19.60;99.90
18948;DHT22;9607;51.600;7.558;2023-06-26T04:23:54;19.80;99.90
18948;DHT22;9607;51.600;7.558;2023-06-26T04:26:21;20.00;99.90
18948;DHT22;9607;51.600;7.558;2023-06-26T04:28:48;20.20;99.90
18948;DHT22;9607;51.600;7.558;2023-06-26T04:31:14;20.30;99.90
18948;DHT22;9607;51.600;7.558;2023-06-26T04:33:43;20.50;99.90
18948;DHT22;9607;51.600;7.558;2023-06-26T04:36:09;20.70;99.90
18948;DHT22;9607;51.600;7.558;2023-06-26T04:38:36;20.90;99.90
18948;DHT22;9607;51.600;7.558;2023-06-26T04:41:03;21.00;99.90
18948;DHT22;9607;51.600;7.558;2023-06-26T04:43:30;21.20;99.90
18948;DHT22;9607;51.600;7.558;2023-06-26T04:45:57;21.30;99.90
18948;DHT22;9607;51.600;7.558;2023-06-26T04:48:24;21.50;99.90
18948;DHT22;9607;51.600;7.558;2023-06-26T04:50:54;21.60;99.90
18948;DHT22;9607;51.600;7.558;2023-06-26T04:53:21;21.70;99.90
18948;DHT22;9607;51.600;7.558;2023-06-26T04:55:49;21.80;99.90
18948;DHT22;9607;51.600;7.558;2023-06-26T04:58:16;21.80;99.90
18948;DHT22;9607;51.600;7.558;2023-06-26T05:00:43;21.90;99.90
18948;DHT22;9607;51.600;7.558;2023-06-26T05:03:11;22.00;99.90
18948;DHT22;9607;51.600;7.558;2023-06-26T05:05:38;22.00;99.90
18948;DHT22;9607;51.600;7.558;2023-06-26T05:08:16;22.10;99.90
18948;DHT22;9607;51.600;7.558;2023-06-26T05:10:43;22.10;99.90
18948;DHT22;9607;51.600;7.558;2023-06-26T05:13:10;22.10;99.90
18948;DHT22;9607;51.600;7.558;2023-06-26T05:15:37;22.20;99.90
18948;DHT22;9607;51.600;7.558;2023-06-26T05:18:04;22.10;99.90
18948;DHT22;9607;51.600;7.558;2023-06-26T05:20:31;22.20;99.90
18948;DHT22;9607;51.600;7.558;2023-06-26T05:22:58;22.20;99.90
18948;DHT22;9607;51.600;7.558;2023-06-26T05:25:29;22.20;99.90
18948;DHT22;9607;51.600;7.558;2023-06-26T05:27:57;22.20;99.90
18948;DHT22;9607;51.600;7.558;2023-06-26T05:30:25;22.30;99.90
18948;DHT22;9607;51.600;7.558;2023-06-26T05:32:53;22.30;99.90
18948;DHT22;9607;51.600;7.558;2023-06-26T05:35:21;22.30;99.90
18948;DHT22;9607;51.600;7.558;2023-06-26T05:37:49;22.40;99.90
18948;DHT22;9607;51.600;7.558;2023-06-26T05:40:17;22.40;99.90
18948;DHT22;9607;51.600;7.558;2023-06-26T05:42:46;22.50;99.90
18948;DHT22;9607;51.600;7.558;2023-06-26T05:45:14;22.50;99.90
18948;DHT22;9607;51.600;7.558;2023-06-26T05:47:41;22.60;99.90
18948;DHT22;9607;51.600;7.558;2023-06-26T05:50:10;22.60;99.90
18948;DHT22;9607;51.600;7.558;2023-06-26T05:52:38;22.60;99.90
18948;DHT22;9607;51.600;7.558;2023-06-26T05:55:06;22.60;99.90
18948;DHT22;9607;51.600;7.558;2023-06-26T05:57:35;22.60;99.90
18948;DHT22;9607;51.600;7.558;2023-06-26T06:00:05;22.60;99.90
18948;DHT22;9607;51.600;7.558;2023-06-26T06:02:36;22.50;99.90
18948;DHT22;9607;51.600;7.558;2023-06-26T06:05:03;22.50;99.90
18948;DHT22;9607;51.600;7.558;2023-06-26T06:07:31;22.50;99.90
18948;DHT22;9607;51.600;7.558;2023-06-26T06:09:58;22.50;99.90
18948;DHT22;9607;51.600;7.558;2023-06-26T06:12:25;22.60;99.90
18948;DHT22;9607;51.600;7.558;2023-06-26T06:14:52;22.70;99.90
18948;DHT22;9607;51.600;7.558;2023-06-26T06:17:20;22.80;99.90
18948;DHT22;9607;51.600;7.558;2023-06-26T06:19:47;23.00;99.90
18948;DHT22;9607;51.600;7.558;2023-06-26T06:22:13;23.20;99.90
18948;DHT22;9607;51.600;7.558;2023-06-26T06:24:42;23.40;99.90
18948;DHT22;9607;51.600;7.558;2023-06-26T06:27:09;23.60;99.90
18948;DHT22;9607;51.600;7.558;2023-06-26T06:29:36;23.80;99.90
18948;DHT22;9607;51.600;7.558;2023-06-26T06:32:03;24.10;99.90
18948;DHT22;9607;51.600;7.558;2023-06-26T06:34:31;24.10;99.90
18948;DHT22;9607;51.600;7.558;2023-06-26T06:36:58;23.90;99.90
18948;DHT22;9607;51.600;7.558;2023-06-26T06:39:25;23.70;99.90
18948;DHT22;9607;51.600;7.558;2023-06-26T06:41:52;23.60;99.90
18948;DHT22;9607;51.600;7.558;2023-06-26T06:44:19;23.40;99.90
18948;DHT22;9607;51.600;7.558;2023-06-26T06:46:46;23.30;99.90
18948;DHT22;9607;51.600;7.558;2023-06-26T06:49:12;23.30;99.90
18948;DHT22;9607;51.600;7.558;2023-06-26T06:51:41;23.30;99.90
18948;DHT22;9607;51.600;7.558;2023-06-26T06:54:07;23.30;99.90
18948;DHT22;9607;51.600;7.558;2023-06-26T06:56:34;23.30;99.90
18948;DHT22;9607;51.600;7.558;2023-06-26T06:59:01;23.40;99.90
18948;DHT22;9607;51.600;7.558;2023-06-26T07:01:28;23.60;99.90
18948;DHT22;9607;51.600;7.558;2023-06-26T07:03:55;23.70;99.90
18948;DHT22;9607;51.600;7.558;2023-06-26T07:06:23;23.70;99.90
18948;DHT22;9607;51.600;7.558;2023-06-26T07:08:51;23.80;99.90
18948;DHT22;9607;51.600;7.558;2023-06-26T07:11:18;23.90;99.90
18948;DHT22;9607;51.600;7.558;2023-06-26T07:13:44;23.90;99.90
18948;DHT22;9607;51.600;7.558;2023-06-26T07:16:11;23.90;99.90
18948;DHT22;9607;51.600;7.558;2023-06-26T07:18:40;23.80;99.90
18948;DHT22;9607;51.600;7.558;2023-06-26T07:21:07;23.80;99.90
18948;DHT22;9607;51.600;7.558;2023-06-26T07:23:34;23.80;99.90
18948;DHT22;9607;51.600;7.558;2023-06-26T07:26:02;23.80;99.90
18948;DHT22;9607;51.600;7.558;2023-06-26T07:28:29;23.70;99.90
18948;DHT22;9607;51.600;7.558;2023-06-26T07:30:56;23.60;99.90
18948;DHT22;9607;51.600;7.558;2023-06-26T07:33:22;23.60;99.90
18948;DHT22;9607;51.600;7.558;2023-06-26T07:35:50;23.50;99.90
18948;DHT22;9607;51.600;7.558;2023-06-26T07:38:16;23.50;99.90
18948;DHT22;9607;51.600;7.558;2023-06-26T07:40:43;23.50;99.90
18948;DHT22;9607;51.600;7.558;2023-06-26T07:43:11;23.30;99.90
18948;DHT22;9607;51.600;7.558;2023-06-26T07:45:38;23.30;99.90
18948;DHT22;9607;51.600;7.558;2023-06-26T07:48:06;23.20;99.90
18948;DHT22;9607;51.600;7.558;2023-06-26T07:50:32;23.20;99.90
18948;DHT22;9607;51.600;7.558;2023-06-26T07:52:59;23.20;99.90
18948;DHT22;9607;51.600;7.558;2023-06-26T07:55:26;23.30;99.90
18948;DHT22;9607;51.600;7.558;2023-06-26T07:57:53;23.20;99.90
18948;DHT22;9607;51.600;7.558;2023-06-26T08:00:22;23.30;99.90
18948;DHT22;9607;51.600;7.558;2023-06-26T08:02:49;23.30;99.90
18948;DHT22;9607;51.600;7.558;2023-06-26T08:05:16;23.20;99.90
18948;DHT22;9607;51.600;7.558;2023-06-26T08:07:42;23.30;99.90
18948;DHT22;9607;51.600;7.558;2023-06-26T08:10:09;23.30;99.90
18948;DHT22;9607;51.600;7.558;2023-06-26T08:12:36;23.40;99.90
18948;DHT22;9607;51.600;7.558;2023-06-26T08:15:06;23.40;99.90
18948;DHT22;9607;51.600;7.558;2023-06-26T08:17:35;23.40;99.90
18948;DHT22;9607;51.600;7.558;2023-06-26T08:20:05;23.50;99.90
18948;DHT22;9607;51.600;7.558;2023-06-26T08:22:34;23.70;99.90
18948;DHT22;9607;51.600;7.558;2023-06-26T08:25:02;23.90;99.90
18948;DHT22;9607;51.600;7.558;2023-06-26T08:27:29;24.10;99.90
18948;DHT22;9607;51.600;7.558;2023-06-26T08:29:56;24.30;99.90
18948;DHT22;9607;51.600;7.558;2023-06-26T08:32:23;24.30;99.90
18948;DHT22;9607;51.600;7.558;2023-06-26T08:34:52;24.30;99.90
18948;DHT22;9607;51.600;7.558;2023-06-26T08:37:18;24.20;99.90
18948;DHT22;9607;51.600;7.558;2023-06-26T08:39:45;24.20;99.90
18948;DHT22;9607;51.600;7.558;2023-06-26T08:42:12;24.30;99.90
18948;DHT22;9607;51.600;7.558;2023-06-26T08:44:39;24.50;99.90
18948;DHT22;9607;51.600;7.558;2023-06-26T08:47:06;24.70;99.90
18948;DHT22;9607;51.600;7.558;2023-06-26T08:49:40;24.70;99.90
18948;DHT22;9607;51.600;7.558;2023-06-26T08:52:17;24.80;99.90
18948;DHT22;9607;51.600;7.558;2023-06-26T08:54:47;24.80;99.90
18948;DHT22;9607;51.600;7.558;2023-06-26T08:57:18;24.80;99.90
18948;DHT22;9607;51.600;7.558;2023-06-26T08:59:46;24.70;99.90
18948;DHT22;9607;51.600;7.558;2023-06-26T09:02:13;24.60;99.90
18948;DHT22;9607;51.600;7.558;2023-06-26T09:04:41;24.60;99.90
18948;DHT22;9607;51.600;7.558;2023-06-26T09:07:08;24.60;99.90
18948;DHT22;9607;51.600;7.558;2023-06-26T09:09:36;24.50;99.90
18948;DHT22;9607;51.600;7.558;2023-06-26T09:12:04;24.40;99.90
18948;DHT22;9607;51.600;7.558;2023-06-26T09:14:31;24.20;99.90
18948;DHT22;9607;51.600;7.558;2023-06-26T09:16:58;24.20;99.90
18948;DHT22;9607;51.600;7.558;2023-06-26T09:19:25;24.30;99.90
18948;DHT22;9607;51.600;7.558;2023-06-26T09:21:52;24.30;99.90
18948;DHT22;9607;51.600;7.558;2023-06-26T09:24:21;24.30;99.90
18948;DHT22;9607;51.600;7.558;2023-06-26T09:26:51;24.20;99.90
18948;DHT22;9607;51.600;7.558;2023-06-26T09:29:19;24.20;99.90
18948;DHT22;9607;51.600;7.558;2023-06-26T09:31:46;24.20;99.90
18948;DHT22;9607;51.600;7.558;2023-06-26T09:34:13;24.30;99.90
18948;DHT22;9607;51.600;7.558;2023-06-26T09:36:40;24.40;99.90
18948;DHT22;9607;51.600;7.558;2023-06-26T09:39:22;24.50;99.90
18948;DHT22;9607;51.600;7.558;2023-06-26T09:41:51;24.50;99.90
18948;DHT22;9607;51.600;7.558;2023-06-26T09:44:18;24.50;99.90
18948;DHT22;9607;51.600;7.558;2023-06-26T09:46:45;24.60;99.90
18948;DHT22;9607;51.600;7.558;2023-06-26T09:49:12;24.70;99.90
18948;DHT22;9607;51.600;7.558;2023-06-26T09:51:40;24.70;99.90
18948;DHT22;9607;51.600;7.558;2023-06-26T09:54:08;24.70;99.90
18948;DHT22;9607;51.600;7.558;2023-06-26T09:56:36;24.60;99.90
18948;DHT22;9607;51.600;7.558;2023-06-26T09:59:05;24.50;99.90
18948;DHT22;9607;51.600;7.558;2023-06-26T10:01:32;24.50;99.90
18948;DHT22;9607;51.600;7.558;2023-06-26T10:04:00;24.60;99.90
18948;DHT22;9607;51.600;7.558;2023-06-26T10:06:28;24.80;99.90
18948;DHT22;9607;51.600;7.558;2023-06-26T10:08:58;24.90;99.90
18948;DHT22;9607;51.600;7.558;2023-06-26T10:11:32;24.90;99.90
18948;DHT22;9607;51.600;7.558;2023-06-26T10:14:05;24.90;99.90
18948;DHT22;9607;51.600;7.558;2023-06-26T10:16:35;25.00;99.90
18948;DHT22;9607;51.600;7.558;2023-06-26T10:19:06;25.30;99.90
18948;DHT22;9607;51.600;7.558;2023-06-26T10:21:37;25.40;99.40
18948;DHT22;9607;51.600;7.558;2023-06-26T10:24:06;25.40;99.90
18948;DHT22;9607;51.600;7.558;2023-06-26T10:26:36;25.20;99.50
18948;DHT22;9607;51.600;7.558;2023-06-26T10:29:07;25.00;98.60
18948;DHT22;9607;51.600;7.558;2023-06-26T10:31:35;24.80;96.40
18948;DHT22;9607;51.600;7.558;2023-06-26T10:34:03;24.50;96.30
18948;DHT22;9607;51.600;7.558;2023-06-26T10:36:31;24.40;97.40
18948;DHT22;9607;51.600;7.558;2023-06-26T10:39:03;24.40;98.20
18948;DHT22;9607;51.600;7.558;2023-06-26T10:41:37;24.50;98.60
18948;DHT22;9607;51.600;7.558;2023-06-26T10:44:08;24.80;96.90
18948;DHT22;9607;51.600;7.558;2023-06-26T10:46:49;25.20;95.80
18948;DHT22;9607;51.600;7.558;2023-06-26T10:49:17;25.50;94.10
18948;DHT22;9607;51.600;7.558;2023-06-26T10:51:47;25.50;92.80
18948;DHT22;9607;51.600;7.558;2023-06-26T10:54:16;25.50;93.30
18948;DHT22;9607;51.600;7.558;2023-06-26T10:56:44;25.40;93.50
18948;DHT22;9607;51.600;7.558;2023-06-26T10:59:13;25.20;92.90
18948;DHT22;9607;51.600;7.558;2023-06-26T11:01:42;24.90;93.80
18948;DHT22;9607;51.600;7.558;2023-06-26T11:04:09;24.70;93.40
18948;DHT22;9607;51.600;7.558;2023-06-26T11:06:38;24.70;93.80
18948;DHT22;9607;51.600;7.558;2023-06-26T11:09:10;24.90;95.20
18948;DHT22;9607;51.600;7.558;2023-06-26T11:11:59;25.20;87.60
18948;DHT22;9607;51.600;7.558;2023-06-26T11:14:32;25.40;89.90
18948;DHT22;9607;51.600;7.558;2023-06-26T11:17:01;25.60;89.90
18948;DHT22;9607;51.600;7.558;2023-06-26T11:19:28;25.50;86.90
18948;DHT22;9607;51.600;7.558;2023-06-26T11:21:59;25.40;87.10
18948;DHT22;9607;51.600;7.558;2023-06-26T11:24:28;25.40;89.00
18948;DHT22;9607;51.600;7.558;2023-06-26T11:27:00;25.40;85.30
18948;DHT22;9607;51.600;7.558;2023-06-26T11:29:27;25.40;86.10
18948;DHT22;9607;51.600;7.558;2023-06-26T11:32:00;25.50;86.10
18948;DHT22;9607;51.600;7.558;2023-06-26T11:34:31;25.70;82.50
18948;DHT22;9607;51.600;7.558;2023-06-26T11:36:58;26.00;81.00
18948;DHT22;9607;51.600;7.558;2023-06-26T11:39:28;26.10;77.10
18948;DHT22;9607;51.600;7.558;2023-06-26T11:41:55;26.30;78.40
18948;DHT22;9607;51.600;7.558;2023-06-26T11:44:22;26.10;82.60
18948;DHT22;9607;51.600;7.558;2023-06-26T11:46:52;25.50;85.40
18948;DHT22;9607;51.600;7.558;2023-06-26T11:49:22;24.90;88.70
18948;DHT22;9607;51.600;7.558;2023-06-26T11:51:51;24.70;90.90
18948;DHT22;9607;51.600;7.558;2023-06-26T11:54:24;24.80;91.90
18948;DHT22;9607;51.600;7.558;2023-06-26T11:56:55;25.00;91.50
18948;DHT22;9607;51.600;7.558;2023-06-26T11:59:23;25.20;90.70
18948;DHT22;9607;51.600;7.558;2023-06-26T12:01:51;25.40;90.90
18948;DHT22;9607;51.600;7.558;2023-06-26T12:04:18;25.60;91.00
18948;DHT22;9607;51.600;7.558;2023-06-26T12:06:49;26.00;91.00
18948;DHT22;9607;51.600;7.558;2023-06-26T12:09:18;26.20;87.10
18948;DHT22;9607;51.600;7.558;2023-06-26T12:11:48;26.10;85.70
18948;DHT22;9607;51.600;7.558;2023-06-26T12:14:15;26.10;83.10
18948;DHT22;9607;51.600;7.558;2023-06-26T12:16:43;25.80;82.00
18948;DHT22;9607;51.600;7.558;2023-06-26T12:19:10;25.40;81.30
18948;DHT22;9607;51.600;7.558;2023-06-26T12:21:49;25.30;81.50
18948;DHT22;9607;51.600;7.558;2023-06-26T12:24:19;25.40;79.80
18948;DHT22;9607;51.600;7.558;2023-06-26T12:26:49;25.60;79.40
18948;DHT22;9607;51.600;7.558;2023-06-26T12:29:19;25.80;78.60
18948;DHT22;9607;51.600;7.558;2023-06-26T12:31:49;26.20;77.70
18948;DHT22;9607;51.600;7.558;2023-06-26T12:34:18;26.70;75.40
18948;DHT22;9607;51.600;7.558;2023-06-26T12:37:00;27.10;73.60
18948;DHT22;9607;51.600;7.558;2023-06-26T12:39:28;27.00;72.10
18948;DHT22;9607;51.600;7.558;2023-06-26T12:41:57;26.90;72.20
18948;DHT22;9607;51.600;7.558;2023-06-26T12:44:26;27.10;74.80
18948;DHT22;9607;51.600;7.558;2023-06-26T12:46:54;27.60;68.40
18948;DHT22;9607;51.600;7.558;2023-06-26T12:49:29;28.00;65.50
18948;DHT22;9607;51.600;7.558;2023-06-26T12:51:59;28.50;64.70
18948;DHT22;9607;51.600;7.558;2023-06-26T12:54:26;28.60;63.90
18948;DHT22;9607;51.600;7.558;2023-06-26T12:56:53;28.80;60.10
18948;DHT22;9607;51.600;7.558;2023-06-26T12:59:21;29.40;58.00
18948;DHT22;9607;51.600;7.558;2023-06-26T13:01:48;29.90;56.10
18948;DHT22;9607;51.600;7.558;2023-06-26T13:04:15;30.40;53.80
18948;DHT22;9607;51.600;7.558;2023-06-26T13:06:42;30.20;51.60
18948;DHT22;9607;51.600;7.558;2023-06-26T13:09:10;29.90;50.50
18948;DHT22;9607;51.600;7.558;2023-06-26T13:11:37;30.10;48.50
18948;DHT22;9607;51.600;7.558;2023-06-26T13:14:04;30.60;47.70
18948;DHT22;9607;51.600;7.558;2023-06-26T13:16:31;30.50;44.70
18948;DHT22;9607;51.600;7.558;2023-06-26T13:18:59;30.40;45.50
18948;DHT22;9607;51.600;7.558;2023-06-26T13:21:26;30.70;45.70
18948;DHT22;9607;51.600;7.558;2023-06-26T13:23:53;30.90;45.00
18948;DHT22;9607;51.600;7.558;2023-06-26T13:26:22;30.50;43.90
18948;DHT22;9607;51.600;7.558;2023-06-26T13:28:50;30.30;45.70
18948;DHT22;9607;51.600;7.558;2023-06-26T13:31:17;30.10;46.50
18948;DHT22;9607;51.600;7.558;2023-06-26T13:33:44;30.60;45.90
18948;DHT22;9607;51.600;7.558;2023-06-26T13:36:14;31.00;46.10
18948;DHT22;9607;51.600;7.558;2023-06-26T13:38:41;30.70;45.70
18948;DHT22;9607;51.600;7.558;2023-06-26T13:41:07;30.50;46.00
18948;DHT22;9607;51.600;7.558;2023-06-26T13:43:36;29.90;46.50
18948;DHT22;9607;51.600;7.558;2023-06-26T13:46:02;29.30;49.10
18948;DHT22;9607;51.600;7.558;2023-06-26T13:48:29;29.30;49.10
18948;DHT22;9607;51.600;7.558;2023-06-26T13:50:58;28.90;50.80
18948;DHT22;9607;51.600;7.558;2023-06-26T13:53:25;28.50;51.80
18948;DHT22;9607;51.600;7.558;2023-06-26T13:55:52;28.30;52.80
18948;DHT22;9607;51.600;7.558;2023-06-26T13:58:18;28.20;52.60
18948;DHT22;9607;51.600;7.558;2023-06-26T14:00:49;27.50;54.40
18948;DHT22;9607;51.600;7.558;2023-06-26T14:03:16;27.10;55.70
18948;DHT22;9607;51.600;7.558;2023-06-26T14:05:43;26.70;55.30
18948;DHT22;9607;51.600;7.558;2023-06-26T14:08:10;26.50;56.80
18948;DHT22;9607;51.600;7.558;2023-06-26T14:10:37;26.40;56.50
18948;DHT22;9607;51.600;7.558;2023-06-26T14:13:04;26.30;54.40
18948;DHT22;9607;51.600;7.558;2023-06-26T14:15:32;26.30;56.20
18948;DHT22;9607;51.600;7.558;2023-06-26T14:18:00;26.20;55.40
18948;DHT22;9607;51.600;7.558;2023-06-26T14:20:28;26.20;56.40
18948;DHT22;9607;51.600;7.558;2023-06-26T14:22:55;26.40;56.10
18948;DHT22;9607;51.600;7.558;2023-06-26T14:25:22;26.60;55.70
18948;DHT22;9607;51.600;7.558;2023-06-26T14:27:48;26.60;54.90
18948;DHT22;9607;51.600;7.558;2023-06-26T14:30:15;26.50;54.60
18948;DHT22;9607;51.600;7.558;2023-06-26T14:32:42;26.40;54.80
18948;DHT22;9607;51.600;7.558;2023-06-26T14:35:10;26.30;56.10
18948;DHT22;9607;51.600;7.558;2023-06-26T14:37:37;26.40;54.80
18948;DHT22;9607;51.600;7.558;2023-06-26T14:40:06;26.50;55.90
18948;DHT22;9607;51.600;7.558;2023-06-26T14:42:33;26.80;56.80
18948;DHT22;9607;51.600;7.558;2023-06-26T14:45:00;27.00;52.40
18948;DHT22;9607;51.600;7.558;2023-06-26T14:47:27;27.10;51.90
18948;DHT22;9607;51.600;7.558;2023-06-26T14:49:54;27.30;51.20
18948;DHT22;9607;51.600;7.558;2023-06-26T14:52:22;27.40;51.60
18948;DHT22;9607;51.600;7.558;2023-06-26T14:54:49;27.60;52.10
18948;DHT22;9607;51.600;7.558;2023-06-26T14:57:16;27.50;50.80
18948;DHT22;9607;51.600;7.558;2023-06-26T14:59:43;27.40;51.00
18948;DHT22;9607;51.600;7.558;2023-06-26T15:02:09;27.40;50.20
18948;DHT22;9607;51.600;7.558;2023-06-26T15:04:36;27.50;50.50
18948;DHT22;9607;51.600;7.558;2023-06-26T15:07:03;27.80;50.60
18948;DHT22;9607;51.600;7.558;2023-06-26T15:09:32;27.90;50.90
18948;DHT22;9607;51.600;7.558;2023-06-26T15:12:00;27.70;49.90
18948;DHT22;9607;51.600;7.558;2023-06-26T15:14:27;27.40;50.80
18948;DHT22;9607;51.600;7.558;2023-06-26T15:16:54;27.20;50.40
18948;DHT22;9607;51.600;7.558;2023-06-26T15:19:21;27.40;50.10
18948;DHT22;9607;51.600;7.558;2023-06-26T15:21:48;27.70;49.40
18948;DHT22;9607;51.600;7.558;2023-06-26T15:24:15;27.90;49.00
18948;DHT22;9607;51.600;7.558;2023-06-26T15:26:43;28.30;49.70
18948;DHT22;9607;51.600;7.558;2023-06-26T15:29:10;29.00;48.00
18948;DHT22;9607;51.600;7.558;2023-06-26T15:31:40;29.60;46.50
18948;DHT22;9607;51.600;7.558;2023-06-26T15:34:07;30.00;45.10
18948;DHT22;9607;51.600;7.558;2023-06-26T15:36:34;30.50;45.70
18948;DHT22;9607;51.600;7.558;2023-06-26T15:39:00;31.70;43.80
18948;DHT22;9607;51.600;7.558;2023-06-26T15:41:27;32.40;41.00
18948;DHT22;9607;51.600;7.558;2023-06-26T15:43:55;32.80;40.30
18948;DHT22;9607;51.600;7.558;2023-06-26T15:46:22;32.90;39.80
18948;DHT22;9607;51.600;7.558;2023-06-26T15:48:49;33.20;39.40